Terminal Aerodrome Forecast
Issued by NWS

Home | Current Version | Previous Version | Text Only | Print | Product List | Glossary On
Versions: 1 2 3 4 5 6 7 8 9 10 11 12 13 14 15 16 17 18 19 20 21 22 23 24 25 26 27 28 29 30 31 32 33
000
FTUS44 KFWD 232102 AAB
TAFGKY
TAF AMD
KGKY 232102Z 2321/2418 33015KT P6SM VCSH SCT035 BKN100
      TEMPO 2321/2324 5SM -SHRA BKN035
     FM240100 34015KT P6SM SCT050 BKN100
     FM240300 32010KT P6SM SCT250
     FM241500 34016KT P6SM SCT250=

USA.gov is the U.S. government's official web portal to all federal, state and local government web resources and services.